Observation data for Roaring Springs on 09/12/2017      Previous  Date  Next       Current Mesonet Observations  Soil Data  Daily Summary Page  Observations in Plain Language
KRRS 120500Z 20005KT 19/12 A3011 RMK A01 T01940115  RH  061%=      5-min Rain = 0
KRRS 120505Z 20005KT 19/12 A3011 RMK A01 T01910115  RH  062%=      5-min Rain = 0
KRRS 120510Z 21004KT 19/11 A3011 RMK A01 T01900114  RH  062%=      5-min Rain = 0
KRRS 120515Z 21004KT 19/11 A301 RMK A01 T01890114  RH  063%=      5-min Rain = 0
KRRS 120520Z 22005KT 19/11 A301 RMK A01 T01870114  RH  064%=      5-min Rain = 0
KRRS 120525Z 23005KT 18/11 A301 RMK A01 T01840114  RH  065%=      5-min Rain = 0
KRRS 120530Z 22005KT 18/11 A301 RMK A01 T01820114  RH  066%=      5-min Rain = 0
KRRS 120535Z 22005KT 18/11 A301 RMK A01 T01830114  RH  065%=      5-min Rain = 0
KRRS 120540Z 22005KT 18/11 A301 RMK A01 T01830114  RH  065%=      5-min Rain = 0
KRRS 120545Z 22004KT 18/11 A301 RMK A01 T01830114  RH  065%=      5-min Rain = 0
KRRS 120550Z 22004KT 18/11 A301 RMK A01 T01830114  RH  065%=      5-min Rain = 0
KRRS 120555Z 22004KT 18/11 A301 RMK A01 T01820114  RH  065%=      5-min Rain = 0
KRRS 120600Z 23004KT 18/11 A301 RMK A01 T01820114  RH  065%=      5-min Rain = 0
KRRS 120605Z 23004KT 18/11 A3009 RMK A01 T01820113  RH  065%=      5-min Rain = 0
KRRS 120610Z 22005KT 18/11 A3009 RMK A01 T01820113  RH  065%=      5-min Rain = 0
KRRS 120615Z 22004KT 18/11 A3009 RMK A01 T01800113  RH  066%=      5-min Rain = 0
KRRS 120620Z 21005KT 18/11 A3009 RMK A01 T01800113  RH  066%=      5-min Rain = 0
KRRS 120625Z 21004KT 18/11 A3009 RMK A01 T01810113  RH  066%=      5-min Rain = 0
KRRS 120630Z 22005KT 18/11 A3009 RMK A01 T01830112  RH  065%=      5-min Rain = 0
KRRS 120635Z 23005KT 18/11 A3009 RMK A01 T01790113  RH  066%=      5-min Rain = 0
KRRS 120640Z 23005KT 18/11 A3009 RMK A01 T01760113  RH  068%=      5-min Rain = 0
KRRS 120645Z 24005KT 17/11 A3009 RMK A01 T01740113  RH  068%=      5-min Rain = 0
KRRS 120650Z 24005KT 17/11 A3009 RMK A01 T01730113  RH  069%=      5-min Rain = 0
KRRS 120655Z 24005KT 17/11 A3009 RMK A01 T01710113  RH  070%=      5-min Rain = 0
KRRS 120700Z 24005KT 17/11 A3008 RMK A01 T01700113  RH  070%=      5-min Rain = 0
KRRS 120705Z 24005KT 17/11 A3008 RMK A01 T01700113  RH  070%=      5-min Rain = 0
KRRS 120710Z 24005KT 17/11 A3008 RMK A01 T01710113  RH  070%=      5-min Rain = 0
KRRS 120715Z 24005KT 17/11 A3008 RMK A01 T01720112  RH  069%=      5-min Rain = 0
KRRS 120720Z 24005KT 17/11 A3008 RMK A01 T01720112  RH  069%=      5-min Rain = 0
KRRS 120725Z 24006KT 17/11 A3008 RMK A01 T01720112  RH  069%=      5-min Rain = 0
KRRS 120730Z 24006KT 17/11 A3008 RMK A01 T01720112  RH  069%=      5-min Rain = 0
KRRS 120735Z 23005KT 17/11 A3008 RMK A01 T01730112  RH  068%=      5-min Rain = 0
KRRS 120740Z 23005KT 17/11 A3008 RMK A01 T01740112  RH  068%=      5-min Rain = 0
KRRS 120745Z 23005KT 17/11 A3007 RMK A01 T01720112  RH  069%=      5-min Rain = 0
KRRS 120750Z 23005KT 17/11 A3007 RMK A01 T01720112  RH  069%=      5-min Rain = 0
KRRS 120755Z 23006KT 17/11 A3007 RMK A01 T01720112  RH  069%=      5-min Rain = 0
KRRS 120800Z 24006KT 17/11 A3007 RMK A01 T01720112  RH  069%=      5-min Rain = 0
KRRS 120805Z 24005KT 17/11 A3007 RMK A01 T01710112  RH  069%=      5-min Rain = 0
KRRS 120810Z 24006KT 17/11 A3007 RMK A01 T01710112  RH  070%=      5-min Rain = 0
KRRS 120815Z 24006KT 17/11 A3007 RMK A01 T01700112  RH  070%=      5-min Rain = 0
KRRS 120820Z 26007KT 17/11 A3007 RMK A01 T01700112  RH  070%=      5-min Rain = 0
KRRS 120825Z 26007KT 17/11 A3007 RMK A01 T01690113  RH  071%=      5-min Rain = 0
KRRS 120830Z 26007KT 17/11 A3007 RMK A01 T01690113  RH  071%=      5-min Rain = 0
KRRS 120835Z 26006KT 17/11 A3007 RMK A01 T01690113  RH  071%=      5-min Rain = 0
KRRS 120840Z 26006KT 17/11 A3007 RMK A01 T01680113  RH  071%=      5-min Rain = 0
KRRS 120845Z 26006KT 17/11 A3006 RMK A01 T01680112  RH  071%=      5-min Rain = 0
KRRS 120850Z 26006KT 17/11 A3006 RMK A01 T01680112  RH  071%=      5-min Rain = 0
KRRS 120855Z 26006KT 17/11 A3007 RMK A01 T01670112  RH  071%=      5-min Rain = 0
KRRS 120900Z 27006KT 17/11 A3006 RMK A01 T01660112  RH  072%=      5-min Rain = 0
KRRS 120905Z 26006KT 17/11 A3006 RMK A01 T01650112  RH  072%=      5-min Rain = 0
KRRS 120910Z 26005KT 17/11 A3006 RMK A01 T01660112  RH  072%=      5-min Rain = 0
KRRS 120915Z 26005KT 17/11 A3006 RMK A01 T01670112  RH  071%=      5-min Rain = 0
KRRS 120920Z 26005KT 17/11 A3006 RMK A01 T01670112  RH  071%=      5-min Rain = 0
KRRS 120925Z 26005KT 17/11 A3006 RMK A01 T01660112  RH  072%=      5-min Rain = 0
KRRS 120930Z 25005KT 17/11 A3006 RMK A01 T01660112  RH  072%=      5-min Rain = 0
KRRS 120935Z 25005KT 17/11 A3006 RMK A01 T01650112  RH  072%=      5-min Rain = 0
KRRS 120940Z 25006KT 17/11 A3006 RMK A01 T01650111  RH  072%=      5-min Rain = 0
KRRS 120945Z 25006KT 16/11 A3006 RMK A01 T01630111  RH  072%=      5-min Rain = 0
KRRS 120950Z 24005KT 16/11 A3006 RMK A01 T01630111  RH  073%=      5-min Rain = 0
KRRS 120955Z 23005KT 16/11 A3006 RMK A01 T01630112  RH  073%=      5-min Rain = 0
KRRS 121000Z 23005KT 16/11 A3006 RMK A01 T01630111  RH  073%=      5-min Rain = 0
KRRS 121005Z 26006KT 16/11 A3006 RMK A01 T01620111  RH  073%=      5-min Rain = 0
KRRS 121010Z 26007KT 16/11 A3006 RMK A01 T01590112  RH  075%=      5-min Rain = 0
KRRS 121015Z 27007KT 16/11 A3006 RMK A01 T01580112  RH  076%=      5-min Rain = 0
KRRS 121020Z 27006KT 16/11 A3006 RMK A01 T01570112  RH  076%=      5-min Rain = 0
KRRS 121025Z 27006KT 16/11 A3006 RMK A01 T01570111  RH  076%=      5-min Rain = 0
KRRS 121030Z 26006KT 16/11 A3006 RMK A01 T01550111  RH  076%=      5-min Rain = 0
KRRS 121035Z 26006KT 16/11 A3006 RMK A01 T01550111  RH  076%=      5-min Rain = 0
KRRS 121040Z 26007KT 15/11 A3006 RMK A01 T01540110  RH  076%=      5-min Rain = 0
KRRS 121045Z 26007KT 16/11 A3006 RMK A01 T01550110  RH  076%=      5-min Rain = 0
KRRS 121050Z 26007KT 16/11 A3006 RMK A01 T01560110  RH  076%=      5-min Rain = 0
KRRS 121055Z 27007KT 16/11 A3006 RMK A01 T01560110  RH  076%=      5-min Rain = 0
KRRS 121100Z 27007KT 16/11 A3006 RMK A01 T01560110  RH  075%=      5-min Rain = 0
KRRS 121105Z 27008KT 16/11 A3006 RMK A01 T01560110  RH  076%=      5-min Rain = 0
KRRS 121110Z 27008KT 16/11 A3006 RMK A01 T01560110  RH  075%=      5-min Rain = 0
KRRS 121115Z 27008KT 16/11 A3006 RMK A01 T01560110  RH  075%=      5-min Rain = 0
KRRS 121120Z 27008KT 16/11 A3006 RMK A01 T01550110  RH  076%=      5-min Rain = 0
KRRS 121125Z 27007KT 16/11 A3006 RMK A01 T01550109  RH  076%=      5-min Rain = 0
KRRS 121130Z 26007KT 15/11 A3006 RMK A01 T01540109  RH  076%=      5-min Rain = 0
KRRS 121135Z 27008KT 15/11 A3006 RMK A01 T01530109  RH  076%=      5-min Rain = 0
KRRS 121140Z 27008KT 16/11 A3006 RMK A01 T01550109  RH  076%=      5-min Rain = 0
KRRS 121145Z 28008KT 16/11 A3006 RMK A01 T01560109  RH  075%=      5-min Rain = 0
KRRS 121150Z 27007KT 16/11 A3006 RMK A01 T01570109  RH  075%=      5-min Rain = 0
KRRS 121155Z 27007KT 16/11 A3006 RMK A01 T01580109  RH  074%=      5-min Rain = 0
KRRS 121200Z 27007KT 16/11 A3006 RMK A01 T01580109  RH  074%=      5-min Rain = 0
KRRS 121205Z 27008KT 16/11 A3006 RMK A01 T01580109  RH  074%=      5-min Rain = 0
KRRS 121210Z 27007KT 16/11 A3006 RMK A01 T01570109  RH  074%=      5-min Rain = 0
KRRS 121215Z 27008KT 16/11 A3006 RMK A01 T01560109  RH  075%=      5-min Rain = 0
KRRS 121220Z 27008KT 16/11 A3006 RMK A01 T01560109  RH  075%=      5-min Rain = 0
KRRS 121225Z 28008KT 16/11 A3006 RMK A01 T01550109  RH  075%=      5-min Rain = 0
KRRS 121230Z 28007KT 15/11 A3006 RMK A01 T01530109  RH  076%=      5-min Rain = 0
KRRS 121235Z 28008KT 15/11 A3006 RMK A01 T01530109  RH  076%=      5-min Rain = 0
KRRS 121240Z 27008KT 15/11 A3006 RMK A01 T01540109  RH  076%=      5-min Rain = 0
KRRS 121245Z 28008KT 16/11 A3006 RMK A01 T01560109  RH  075%=      5-min Rain = 0
KRRS 121250Z 27007KT 16/11 A3006 RMK A01 T01580110  RH  074%=      5-min Rain = 0
KRRS 121255Z 27007KT 16/11 A3007 RMK A01 T01600110  RH  074%=      5-min Rain = 0
KRRS 121300Z 27007KT 16/11 A3007 RMK A01 T01620111  RH  073%=      5-min Rain = 0
KRRS 121305Z 27007KT 17/11 A3007 RMK A01 T01650112  RH  072%=      5-min Rain = 0
KRRS 121310Z 27007KT 17/11 A3007 RMK A01 T01680114  RH  072%=      5-min Rain = 0
KRRS 121315Z 27007KT 17/11 A3007 RMK A01 T01710114  RH  070%=      5-min Rain = 0
KRRS 121320Z 27007KT 18/12 A3007 RMK A01 T01750115  RH  069%=      5-min Rain = 0
KRRS 121325Z 27006KT 18/12 A3007 RMK A01 T01770116  RH  068%=      5-min Rain = 0
KRRS 121330Z 27006KT 18/12 A3007 RMK A01 T01810117  RH  068%=      5-min Rain = 0
KRRS 121335Z 27006KT 18/12 A3007 RMK A01 T01840118  RH  067%=      5-min Rain = 0
KRRS 121340Z 27005KT 19/12 A3007 RMK A01 T01890119  RH  065%=      5-min Rain = 0
KRRS 121345Z 27004KT 19/12 A3007 RMK A01 T01940120  RH  064%=      5-min Rain = 0
KRRS 121350Z 27005KT 20/12 A3007 RMK A01 T01980121  RH  062%=      5-min Rain = 0
KRRS 121355Z 27005KT 20/12 A3006 RMK A01 T02020121  RH  061%=      5-min Rain = 0
KRRS 121400Z 27004KT 21/12 A3007 RMK A01 T02050122  RH  060%=      5-min Rain = 0
KRRS 121405Z 27004KT 21/12 A3006 RMK A01 T02090123  RH  059%=      5-min Rain = 0
KRRS 121410Z 27005KT 21/12 A3006 RMK A01 T02120123  RH  058%=      5-min Rain = 0
KRRS 121415Z 26004KT 22/12 A3006 RMK A01 T02160124  RH  057%=      5-min Rain = 0
KRRS 121420Z 25004KT 22/13 A3006 RMK A01 T02200126  RH  056%=      5-min Rain = 0
KRRS 121425Z 24004KT 22/13 A3006 RMK A01 T02240125  RH  055%=      5-min Rain = 0
KRRS 121430Z 24004KT 23/13 A3006 RMK A01 T02270129  RH  055%=      5-min Rain = 0
KRRS 121435Z 23004KT 23/13 A3006 RMK A01 T02300130  RH  054%=      5-min Rain = 0
KRRS 121440Z 22004KT 23/13 A3006 RMK A01 T02340131  RH  053%=      5-min Rain = 0
KRRS 121445Z 23005KT 24/13 A3006 RMK A01 T02380128  RH  051%=      5-min Rain = 0
KRRS 121450Z 23004KT 24/13 A3006 RMK A01 T02410128  RH  050%=      5-min Rain = 0
KRRS 121455Z 22004KT 25/13 A3006 RMK A01 T02450126  RH  048%=      5-min Rain = 0
KRRS 121500Z 21004KT 25/13 A3006 RMK A01 T02480129  RH  048%=      5-min Rain = 0
KRRS 121505Z 19004KT 25/13 A3006 RMK A01 T02510127  RH  047%=      5-min Rain = 0
KRRS 121510Z 18004KT 25/13 A3006 RMK A01 T02540125  RH  046%=      5-min Rain = 0
KRRS 121515Z 20006KT 25/12 A3006 RMK A01 T02540120  RH  044%=      5-min Rain = 0
KRRS 121520Z 23005KT 26/12 A3006 RMK A01 T02550120  RH  044%=      5-min Rain = 0
KRRS 121525Z 19004KT 26/12 A3005 RMK A01 T02580123  RH  044%=      5-min Rain = 0
KRRS 121530Z 21005KT 26/12 A3005 RMK A01 T02590121  RH  043%=      5-min Rain = 0
KRRS 121535Z 21004KT 26/12 A3005 RMK A01 T02590122  RH  043%=      5-min Rain = 0
KRRS 121540Z 22004KT 26/12 A3005 RMK A01 T02620124  RH  043%=      5-min Rain = 0
KRRS 121545Z 18004KT 26/12 A3005 RMK A01 T02640123  RH  042%=      5-min Rain = 0
KRRS 121550Z 19005KT 27/12 A3005 RMK A01 T02670122  RH  042%=      5-min Rain = 0
KRRS 121555Z 18004KT 27/12 A3005 RMK A01 T02680119  RH  040%=      5-min Rain = 0
KRRS 121600Z 16004KT 27/12 A3005 RMK A01 T02680121  RH  041%=      5-min Rain = 0
KRRS 121605Z 15004KT 27/12 A3005 RMK A01 T02710121  RH  040%=      5-min Rain = 0
KRRS 121610Z 23003KT 28/12 A3005 RMK A01 T02750124  RH  040%=      5-min Rain = 0
KRRS 121615Z 30003KT 27/12 A3005 RMK A01 T02740123  RH  040%=      5-min Rain = 0
KRRS 121620Z 21002KT 28/12 A3005 RMK A01 T02780122  RH  039%=      5-min Rain = 0
KRRS 121625Z 20005KT 28/12 A3005 RMK A01 T02800122  RH  038%=      5-min Rain = 0
KRRS 121630Z 21002KT 28/12 A3004 RMK A01 T02800121  RH  038%=      5-min Rain = 0
KRRS 121635Z 15003KT 28/12 A3004 RMK A01 T02830121  RH  037%=      5-min Rain = 0
KRRS 121640Z 20003KT 28/12 A3004 RMK A01 T02840120  RH  037%=      5-min Rain = 0
KRRS 121645Z 15001KT 29/12 A3004 RMK A01 T02880123  RH  037%=      5-min Rain = 0
KRRS 121650Z 15002KT 29/12 A3004 RMK A01 T02890120  RH  036%=      5-min Rain = 0
KRRS 121655Z 10003KT 29/12 A3004 RMK A01 T02890123  RH  037%=      5-min Rain = 0
KRRS 121700Z 18005KT 29/12 A3003 RMK A01 T02880120  RH  036%=      5-min Rain = 0
KRRS 121705Z 20003G8KT 29/12 A3003 RMK A01 T02900120  RH  036%=      5-min Rain = 0
KRRS 121710Z 11001KT 30/12 A3003 RMK A01 T02950121  RH  035%=      5-min Rain = 0
KRRS 121715Z 11003KT 30/12 A3003 RMK A01 T02950118  RH  034%=      5-min Rain = 0
KRRS 121720Z 14004KT 30/12 A3002 RMK A01 T02950122  RH  035%=      5-min Rain = 0
KRRS 121725Z 14003KT 30/12 A3002 RMK A01 T02950119  RH  034%=      5-min Rain = 0
KRRS 121730Z 17004KT 30/12 A3002 RMK A01 T02960117  RH  034%=      5-min Rain = 0
KRRS 121735Z 15006KT 30/12 A3002 RMK A01 T02960118  RH  034%=      5-min Rain = 0
KRRS 121740Z 15004KT 30/12 A3002 RMK A01 T02980120  RH  034%=      5-min Rain = 0
KRRS 121745Z 17004KT 30/13 A3002 RMK A01 T03040125  RH  034%=      5-min Rain = 0
KRRS 121750Z 16004KT 30/12 A3001 RMK A01 T03030120  RH  033%=      5-min Rain = 0
KRRS 121755Z 13003KT 30/12 A3001 RMK A01 T03000119  RH  033%=      5-min Rain = 0
KRRS 121800Z 12002KT 30/12 A3001 RMK A01 T03000122  RH  034%=      5-min Rain = 0
KRRS 121805Z 12003KT 30/12 A3001 RMK A01 T03000118  RH  033%=      5-min Rain = 0
KRRS 121810Z 12002KT 30/12 A3001 RMK A01 T02990121  RH  034%=      5-min Rain = 0
KRRS 121815Z 15004G10KT 30/12 A3001 RMK A01 T03010119  RH  033%=      5-min Rain = 0
KRRS 121820Z 13003KT 30/12 A30 RMK A01 T03020120  RH  033%=      5-min Rain = 0
KRRS 121825Z 15002KT 30/12 A30 RMK A01 T03020119  RH  033%=      5-min Rain = 0
KRRS 121830Z 16003KT 31/12 A30 RMK A01 T03050119  RH  033%=      5-min Rain = 0
KRRS 121835Z 10003KT 31/12 A30 RMK A01 T03070123  RH  033%=      5-min Rain = 0
KRRS 121840Z 09005G10KT 31/13 A30 RMK A01 T03100126  RH  033%=      5-min Rain = 0
KRRS 121845Z 07005KT 31/12 A2999 RMK A01 T03090122  RH  032%=      5-min Rain = 0
KRRS 121850Z 10003G8KT 31/12 A2999 RMK A01 T03090123  RH  033%=      5-min Rain = 0
KRRS 121855Z 11005KT 31/13 A2999 RMK A01 T03110125  RH  033%=      5-min Rain = 0
KRRS 121900Z 10007KT 31/13 A2999 RMK A01 T03140126  RH  032%=      5-min Rain = 0
KRRS 121905Z 09005KT 31/12 A2998 RMK A01 T03110123  RH  032%=      5-min Rain = 0
KRRS 121910Z 07003KT 31/12 A2998 RMK A01 T03110124  RH  033%=      5-min Rain = 0
KRRS 121915Z 12005KT 32/13 A2998 RMK A01 T03150125  RH  032%=      5-min Rain = 0
KRRS 121920Z 14004KT 31/12 A2997 RMK A01 T03130122  RH  032%=      5-min Rain = 0
KRRS 121925Z 08002KT 32/13 A2997 RMK A01 T03170125  RH  032%=      5-min Rain = 0
KRRS 121930Z 04004KT 32/13 A2997 RMK A01 T03230126  RH  031%=      5-min Rain = 0
KRRS 121935Z 04008KT 32/12 A2996 RMK A01 T03220124  RH  030%=      5-min Rain = 0
KRRS 121940Z 01006G11KT 32/12 A2996 RMK A01 T03210122  RH  030%=      5-min Rain = 0
KRRS 121945Z 33002KT 32/12 A2996 RMK A01 T03160122  RH  031%=      5-min Rain = 0
KRRS 121950Z 30003KT 32/12 A2996 RMK A01 T03170123  RH  031%=      5-min Rain = 0
KRRS 121955Z 03006G13KT 32/12 A2995 RMK A01 T03210124  RH  031%=      5-min Rain = 0
KRRS 122000Z 01006KT 32/12 A2995 RMK A01 T03220122  RH  030%=      5-min Rain = 0
KRRS 122005Z 05005KT 32/12 A2995 RMK A01 T03210123  RH  030%=      5-min Rain = 0
KRRS 122010Z 29005KT 32/12 A2995 RMK A01 T03210120  RH  030%=      5-min Rain = 0
KRRS 122015Z 04005G13KT 32/13 A2994 RMK A01 T03240125  RH  030%=      5-min Rain = 0
KRRS 122020Z 04006KT 33/12 A2994 RMK A01 T03260121  RH  029%=      5-min Rain = 0
KRRS 122025Z 10002KT 32/12 A2994 RMK A01 T03240120  RH  029%=      5-min Rain = 0
KRRS 122030Z 03007KT 33/12 A2994 RMK A01 T03250123  RH  030%=      5-min Rain = 0
KRRS 122035Z 05006KT 33/12 A2993 RMK A01 T03260123  RH  030%=      5-min Rain = 0
KRRS 122040Z 10007KT 32/12 A2993 RMK A01 T03240124  RH  030%=      5-min Rain = 0
KRRS 122045Z 07006KT 32/12 A2993 RMK A01 T03240123  RH  030%=      5-min Rain = 0
KRRS 122050Z 07004G9KT 32/12 A2993 RMK A01 T03240124  RH  030%=      5-min Rain = 0
KRRS 122055Z 07007KT 32/12 A2993 RMK A01 T03240123  RH  030%=      5-min Rain = 0
KRRS 122100Z 06007KT 33/12 A2993 RMK A01 T03260123  RH  030%=      5-min Rain = 0
KRRS 122105Z 06007KT 33/12 A2992 RMK A01 T03260124  RH  030%=      5-min Rain = 0
KRRS 122110Z 05005KT 33/13 A2992 RMK A01 T03260125  RH  030%=      5-min Rain = 0
KRRS 122115Z 01004KT 33/12 A2992 RMK A01 T03260121  RH  029%=      5-min Rain = 0
KRRS 122120Z 05002KT 33/13 A2992 RMK A01 T03260125  RH  030%=      5-min Rain = 0
KRRS 122125Z 06007KT 33/12 A2991 RMK A01 T03270124  RH  030%=      5-min Rain = 0
KRRS 122130Z 08008KT 33/13 A2991 RMK A01 T03260128  RH  031%=      5-min Rain = 0
KRRS 122135Z 08009G14KT 33/13 A2991 RMK A01 T03260127  RH  030%=      5-min Rain = 0
KRRS 122140Z 09007KT 32/13 A2991 RMK A01 T03230127  RH  031%=      5-min Rain = 0
KRRS 122145Z 07008KT 33/13 A2991 RMK A01 T03250127  RH  031%=      5-min Rain = 0
KRRS 122150Z 07006KT 32/13 A2991 RMK A01 T03240125  RH  030%=      5-min Rain = 0
KRRS 122155Z 06005KT 32/12 A2991 RMK A01 T03220124  RH  031%=      5-min Rain = 0
KRRS 122200Z 10007KT 32/13 A2991 RMK A01 T03240129  RH  031%=      5-min Rain = 0
KRRS 122205Z 04009KT 32/13 A2991 RMK A01 T03240125  RH  030%=      5-min Rain = 0
KRRS 122210Z 06008G13KT 32/13 A2991 RMK A01 T03230126  RH  031%=      5-min Rain = 0
KRRS 122215Z 06008KT 32/13 A2991 RMK A01 T03210126  RH  031%=      5-min Rain = 0
KRRS 122220Z 05008KT 32/13 A2991 RMK A01 T03230126  RH  031%=      5-min Rain = 0
KRRS 122225Z 08008KT 32/13 A2991 RMK A01 T03210125  RH  031%=      5-min Rain = 0
KRRS 122230Z 08008KT 32/13 A299 RMK A01 T03200126  RH  031%=      5-min Rain = 0
KRRS 122235Z 07009KT 32/13 A299 RMK A01 T03190126  RH  031%=      5-min Rain = 0
KRRS 122240Z 07006KT 32/13 A299 RMK A01 T03190126  RH  031%=      5-min Rain = 0
KRRS 122245Z 06008KT 32/12 A299 RMK A01 T03180124  RH  031%=      5-min Rain = 0
KRRS 122250Z 08007KT 32/13 A299 RMK A01 T03150125  RH  032%=      5-min Rain = 0
KRRS 122255Z 07008KT 32/12 A299 RMK A01 T03150124  RH  032%=      5-min Rain = 0
KRRS 122300Z 07009KT 31/13 A299 RMK A01 T03140125  RH  032%=      5-min Rain = 0
KRRS 122305Z 06009KT 31/12 A299 RMK A01 T03130124  RH  032%=      5-min Rain = 0
KRRS 122310Z 07009KT 31/12 A299 RMK A01 T03110124  RH  032%=      5-min Rain = 0
KRRS 122315Z 06008G13KT 31/12 A299 RMK A01 T03100123  RH  033%=      5-min Rain = 0
KRRS 122320Z 05009KT 31/12 A299 RMK A01 T03090122  RH  032%=      5-min Rain = 0
KRRS 122325Z 05009G15KT 31/12 A299 RMK A01 T03080122  RH  033%=      5-min Rain = 0
KRRS 122330Z 06010KT 31/12 A299 RMK A01 T03060121  RH  033%=      5-min Rain = 0
KRRS 122335Z 07009KT 30/12 A299 RMK A01 T03040121  RH  033%=      5-min Rain = 0
KRRS 122340Z 08009KT 30/12 A299 RMK A01 T03020121  RH  034%=      5-min Rain = 0
KRRS 122345Z 07007KT 30/12 A299 RMK A01 T03010123  RH  034%=      5-min Rain = 0
KRRS 122350Z 07009KT 30/12 A299 RMK A01 T03000122  RH  034%=      5-min Rain = 0
KRRS 122355Z 06009KT 30/12 A299 RMK A01 T02970122  RH  034%=      5-min Rain = 0
KRRS 130000Z 06009KT 30/12 A299 RMK A01 T02950120  RH  035%=      5-min Rain = 0
KRRS 130005Z 08008KT 29/12 A299 RMK A01 T02920122  RH  036%=      5-min Rain = 0
KRRS 130010Z 07009KT 29/12 A299 RMK A01 T02900120  RH  036%=      5-min Rain = 0
KRRS 130015Z 07007KT 29/12 A2989 RMK A01 T02880121  RH  036%=      5-min Rain = 0
KRRS 130020Z 07007KT 29/12 A2989 RMK A01 T02860121  RH  037%=      5-min Rain = 0
KRRS 130025Z 08006KT 28/12 A2989 RMK A01 T02830122  RH  038%=      5-min Rain = 0
KRRS 130030Z 08008KT 28/12 A2989 RMK A01 T02800119  RH  038%=      5-min Rain = 0
KRRS 130035Z 07007KT 28/12 A2989 RMK A01 T02770119  RH  038%=      5-min Rain = 0
KRRS 130040Z 07007KT 27/12 A2989 RMK A01 T02740118  RH  039%=      5-min Rain = 0
KRRS 130045Z 07006KT 27/12 A2989 RMK A01 T02710117  RH  039%=      5-min Rain = 0
KRRS 130050Z 08005KT 27/12 A2989 RMK A01 T02660118  RH  040%=      5-min Rain = 0
KRRS 130055Z 08005KT 26/12 A2989 RMK A01 T02610119  RH  042%=      5-min Rain = 0
KRRS 130100Z 07005KT 26/12 A2989 RMK A01 T02570119  RH  043%=      5-min Rain = 0
KRRS 130105Z 07006KT 25/12 A299 RMK A01 T02530118  RH  044%=      5-min Rain = 0
KRRS 130110Z 07006KT 25/12 A299 RMK A01 T02510117  RH  044%=      5-min Rain = 0
KRRS 130115Z 08005KT 25/12 A299 RMK A01 T02480117  RH  045%=      5-min Rain = 0
KRRS 130120Z 09004KT 25/12 A299 RMK A01 T02480118  RH  045%=      5-min Rain = 0
KRRS 130125Z 09004KT 25/12 A299 RMK A01 T02460118  RH  045%=      5-min Rain = 0
KRRS 130130Z 09003KT 25/12 A299 RMK A01 T02470117  RH  045%=      5-min Rain = 0
KRRS 130135Z 08004KT 25/12 A299 RMK A01 T02470116  RH  045%=      5-min Rain = 0
KRRS 130140Z 09004KT 25/12 A299 RMK A01 T02460116  RH  045%=      5-min Rain = 0
KRRS 130145Z 08005KT 25/12 A299 RMK A01 T02450116  RH  045%=      5-min Rain = 0
KRRS 130150Z 08005KT 24/12 A2991 RMK A01 T02430115  RH  046%=      5-min Rain = 0
KRRS 130155Z 09005KT 24/12 A2991 RMK A01 T02420115  RH  046%=      5-min Rain = 0
KRRS 130200Z 08006KT 24/12 A2991 RMK A01 T02410115  RH  046%=      5-min Rain = 0
KRRS 130205Z 08006KT 24/11 A2991 RMK A01 T02380114  RH  047%=      5-min Rain = 0
KRRS 130210Z 08005KT 24/11 A2992 RMK A01 T02360114  RH  047%=      5-min Rain = 0
KRRS 130215Z 09005KT 24/12 A2992 RMK A01 T02350115  RH  048%=      5-min Rain = 0
KRRS 130220Z 09005KT 23/12 A2992 RMK A01 T02330115  RH  048%=      5-min Rain = 0
KRRS 130225Z 10005KT 23/12 A2992 RMK A01 T02320115  RH  049%=      5-min Rain = 0
KRRS 130230Z 08006KT 23/11 A2992 RMK A01 T02310114  RH  049%=      5-min Rain = 0
KRRS 130235Z 09006KT 23/11 A2992 RMK A01 T02320112  RH  048%=      5-min Rain = 0
KRRS 130240Z 11005KT 23/11 A2992 RMK A01 T02310113  RH  048%=      5-min Rain = 0
KRRS 130245Z 11005KT 23/11 A2992 RMK A01 T02290114  RH  049%=      5-min Rain = 0
KRRS 130250Z 10006KT 23/11 A2992 RMK A01 T02290113  RH  049%=      5-min Rain = 0
KRRS 130255Z 10005KT 23/11 A2992 RMK A01 T02290113  RH  049%=      5-min Rain = 0
KRRS 130300Z 12006KT 23/11 A2992 RMK A01 T02270114  RH  050%=      5-min Rain = 0
KRRS 130305Z 11007KT 23/11 A2993 RMK A01 T02250111  RH  050%=      5-min Rain = 0
KRRS 130310Z 10007KT 23/11 A2992 RMK A01 T02280108  RH  047%=      5-min Rain = 0
KRRS 130315Z 13006KT 23/11 A2993 RMK A01 T02280107  RH  047%=      5-min Rain = 0
KRRS 130320Z 15004KT 23/11 A2993 RMK A01 T02260107  RH  048%=      5-min Rain = 0
KRRS 130325Z 11007KT 23/11 A2993 RMK A01 T02290105  RH  046%=      5-min Rain = 0
KRRS 130330Z 12006KT 23/10 A2993 RMK A01 T02300104  RH  046%=      5-min Rain = 0
KRRS 130335Z 13005KT 23/10 A2993 RMK A01 T02280103  RH  046%=      5-min Rain = 0
KRRS 130340Z 12005KT 23/10 A2993 RMK A01 T02260103  RH  046%=      5-min Rain = 0
KRRS 130345Z 13004KT 22/10 A2993 RMK A01 T02240103  RH  047%=      5-min Rain = 0
KRRS 130350Z 13003KT 22/10 A2993 RMK A01 T02200104  RH  048%=      5-min Rain = 0
KRRS 130355Z 13005KT 22/10 A2993 RMK A01 T02190104  RH  049%=      5-min Rain = 0
KRRS 130400Z 12006KT 22/10 A2993 RMK A01 T02170103  RH  049%=      5-min Rain = 0
KRRS 130405Z 14005KT 22/10 A2993 RMK A01 T02160103  RH  049%=      5-min Rain = 0
KRRS 130410Z 17004KT 22/10 A2993 RMK A01 T02150103  RH  050%=      5-min Rain = 0
KRRS 130415Z 14005KT 22/10 A2993 RMK A01 T02170103  RH  049%=      5-min Rain = 0
KRRS 130420Z 13005KT 22/10 A2993 RMK A01 T02170102  RH  049%=      5-min Rain = 0
KRRS 130425Z 14005KT 22/10 A2993 RMK A01 T02160102  RH  049%=      5-min Rain = 0
KRRS 130430Z 14006KT 22/10 A2993 RMK A01 T02170102  RH  049%=      5-min Rain = 0
KRRS 130435Z 13006KT 22/10 A2993 RMK A01 T02170102  RH  048%=      5-min Rain = 0
KRRS 130440Z 14006KT 22/10 A2993 RMK A01 T02170102  RH  049%=      5-min Rain = 0
KRRS 130445Z 15006KT 22/10 A2994 RMK A01 T02160101  RH  049%=      5-min Rain = 0
KRRS 130450Z 16005KT 22/10 A2994 RMK A01 T02160101  RH  049%=      5-min Rain = 0
KRRS 130455Z 17005KT 21/10 A2994 RMK A01 T02110103  RH  051%=      5-min Rain = 0

Page generated in 0.0098 seconds.